sensor_id;sensor_type;location;lat;lon;timestamp;P1;durP1;ratioP1;P2;durP2;ratioP2
70303;SDS011;57712;48.752;11.348;2023-05-25T00:00:59;11.13;;;4.43;;
70303;SDS011;57712;48.752;11.348;2023-05-25T00:03:29;10.55;;;4.18;;
70303;SDS011;57712;48.752;11.348;2023-05-25T00:05:58;12.63;;;3.90;;
70303;SDS011;57712;48.752;11.348;2023-05-25T00:08:28;10.50;;;4.15;;
70303;SDS011;57712;48.752;11.348;2023-05-25T00:10:55;13.33;;;4.20;;
70303;SDS011;57712;48.752;11.348;2023-05-25T00:13:22;12.63;;;4.45;;
70303;SDS011;57712;48.752;11.348;2023-05-25T00:15:49;10.30;;;4.70;;
70303;SDS011;57712;48.752;11.348;2023-05-25T00:18:16;10.85;;;3.72;;
70303;SDS011;57712;48.752;11.348;2023-05-25T00:20:44;10.82;;;4.28;;
70303;SDS011;57712;48.752;11.348;2023-05-25T00:23:13;11.90;;;4.10;;
70303;SDS011;57712;48.752;11.348;2023-05-25T00:25:40;11.63;;;4.32;;
70303;SDS011;57712;48.752;11.348;2023-05-25T00:28:07;11.18;;;4.30;;
70303;SDS011;57712;48.752;11.348;2023-05-25T00:30:34;11.23;;;4.20;;
70303;SDS011;57712;48.752;11.348;2023-05-25T00:33:01;12.82;;;4.53;;
70303;SDS011;57712;48.752;11.348;2023-05-25T00:35:28;10.00;;;4.20;;
70303;SDS011;57712;48.752;11.348;2023-05-25T00:37:55;13.40;;;4.78;;
70303;SDS011;57712;48.752;11.348;2023-05-25T00:40:22;12.73;;;5.25;;
70303;SDS011;57712;48.752;11.348;2023-05-25T00:42:48;11.00;;;4.32;;
70303;SDS011;57712;48.752;11.348;2023-05-25T00:45:16;10.60;;;4.50;;
70303;SDS011;57712;48.752;11.348;2023-05-25T00:47:43;11.77;;;4.67;;
70303;SDS011;57712;48.752;11.348;2023-05-25T00:50:10;10.05;;;3.67;;
70303;SDS011;57712;48.752;11.348;2023-05-25T00:52:42;12.05;;;4.57;;
70303;SDS011;57712;48.752;11.348;2023-05-25T00:55:09;13.23;;;4.70;;
70303;SDS011;57712;48.752;11.348;2023-05-25T00:57:41;12.57;;;5.15;;
70303;SDS011;57712;48.752;11.348;2023-05-25T01:00:11;12.73;;;5.10;;
70303;SDS011;57712;48.752;11.348;2023-05-25T01:02:40;10.75;;;4.50;;
70303;SDS011;57712;48.752;11.348;2023-05-25T01:05:10;12.07;;;5.30;;
70303;SDS011;57712;48.752;11.348;2023-05-25T01:07:37;11.50;;;4.40;;
70303;SDS011;57712;48.752;11.348;2023-05-25T01:10:05;11.18;;;5.32;;
70303;SDS011;57712;48.752;11.348;2023-05-25T01:12:38;12.37;;;5.50;;
70303;SDS011;57712;48.752;11.348;2023-05-25T01:15:07;11.93;;;5.20;;
70303;SDS011;57712;48.752;11.348;2023-05-25T01:17:35;13.02;;;4.50;;
70303;SDS011;57712;48.752;11.348;2023-05-25T01:20:04;12.00;;;4.90;;
70303;SDS011;57712;48.752;11.348;2023-05-25T01:22:44;12.50;;;5.05;;
70303;SDS011;57712;48.752;11.348;2023-05-25T01:27:56;15.27;;;5.00;;
70303;SDS011;57712;48.752;11.348;2023-05-25T01:30:32;15.02;;;5.10;;
70303;SDS011;57712;48.752;11.348;2023-05-25T01:33:01;11.05;;;5.20;;
70303;SDS011;57712;48.752;11.348;2023-05-25T01:35:30;15.25;;;5.32;;
70303;SDS011;57712;48.752;11.348;2023-05-25T01:37:59;14.17;;;5.50;;
70303;SDS011;57712;48.752;11.348;2023-05-25T01:40:26;9.98;;;4.72;;
70303;SDS011;57712;48.752;11.348;2023-05-25T01:42:53;11.60;;;5.10;;
70303;SDS011;57712;48.752;11.348;2023-05-25T01:45:21;13.20;;;5.60;;
70303;SDS011;57712;48.752;11.348;2023-05-25T01:53:27;13.05;;;5.13;;
70303;SDS011;57712;48.752;11.348;2023-05-25T01:55:59;13.82;;;4.88;;
70303;SDS011;57712;48.752;11.348;2023-05-25T01:58:30;11.73;;;4.82;;
70303;SDS011;57712;48.752;11.348;2023-05-25T02:01:02;11.63;;;4.68;;
70303;SDS011;57712;48.752;11.348;2023-05-25T02:03:29;11.70;;;4.77;;
70303;SDS011;57712;48.752;11.348;2023-05-25T02:05:56;13.63;;;5.10;;
70303;SDS011;57712;48.752;11.348;2023-05-25T02:08:23;13.32;;;5.03;;
70303;SDS011;57712;48.752;11.348;2023-05-25T02:10:50;12.63;;;5.32;;
70303;SDS011;57712;48.752;11.348;2023-05-25T02:13:17;14.50;;;5.20;;
70303;SDS011;57712;48.752;11.348;2023-05-25T02:15:43;10.23;;;5.13;;
70303;SDS011;57712;48.752;11.348;2023-05-25T02:18:12;11.25;;;4.65;;
70303;SDS011;57712;48.752;11.348;2023-05-25T02:20:39;13.40;;;5.10;;
70303;SDS011;57712;48.752;11.348;2023-05-25T02:23:06;14.00;;;4.95;;
70303;SDS011;57712;48.752;11.348;2023-05-25T02:25:33;11.35;;;4.97;;
70303;SDS011;57712;48.752;11.348;2023-05-25T02:27:59;10.27;;;4.60;;
70303;SDS011;57712;48.752;11.348;2023-05-25T02:30:26;13.05;;;5.03;;
70303;SDS011;57712;48.752;11.348;2023-05-25T02:32:53;10.65;;;5.30;;
70303;SDS011;57712;48.752;11.348;2023-05-25T02:35:20;14.32;;;5.55;;
70303;SDS011;57712;48.752;11.348;2023-05-25T02:37:46;10.43;;;4.95;;
70303;SDS011;57712;48.752;11.348;2023-05-25T02:40:16;10.93;;;5.10;;
70303;SDS011;57712;48.752;11.348;2023-05-25T02:42:43;10.93;;;4.78;;
70303;SDS011;57712;48.752;11.348;2023-05-25T02:45:10;17.58;;;6.00;;
70303;SDS011;57712;48.752;11.348;2023-05-25T02:47:37;10.80;;;4.97;;
70303;SDS011;57712;48.752;11.348;2023-05-25T02:50:03;14.60;;;5.38;;
70303;SDS011;57712;48.752;11.348;2023-05-25T02:52:31;19.30;;;5.07;;
70303;SDS011;57712;48.752;11.348;2023-05-25T02:54:57;10.73;;;4.88;;
70303;SDS011;57712;48.752;11.348;2023-05-25T02:57:24;16.17;;;5.30;;
70303;SDS011;57712;48.752;11.348;2023-05-25T02:59:52;11.63;;;5.03;;
70303;SDS011;57712;48.752;11.348;2023-05-25T03:02:18;12.48;;;5.53;;
70303;SDS011;57712;48.752;11.348;2023-05-25T03:04:46;13.93;;;5.30;;
70303;SDS011;57712;48.752;11.348;2023-05-25T03:07:15;10.23;;;5.20;;
70303;SDS011;57712;48.752;11.348;2023-05-25T03:09:41;13.93;;;6.20;;
70303;SDS011;57712;48.752;11.348;2023-05-25T03:12:08;13.77;;;5.38;;
70303;SDS011;57712;48.752;11.348;2023-05-25T03:14:34;15.02;;;5.25;;
70303;SDS011;57712;48.752;11.348;2023-05-25T03:17:01;14.27;;;5.60;;
70303;SDS011;57712;48.752;11.348;2023-05-25T03:19:29;12.90;;;5.35;;
70303;SDS011;57712;48.752;11.348;2023-05-25T03:21:55;13.13;;;5.82;;
70303;SDS011;57712;48.752;11.348;2023-05-25T03:24:22;11.40;;;5.22;;
70303;SDS011;57712;48.752;11.348;2023-05-25T03:26:49;12.63;;;5.32;;
70303;SDS011;57712;48.752;11.348;2023-05-25T03:29:15;13.23;;;4.93;;
70303;SDS011;57712;48.752;11.348;2023-05-25T03:31:42;16.00;;;5.32;;
70303;SDS011;57712;48.752;11.348;2023-05-25T03:34:09;14.77;;;5.07;;
70303;SDS011;57712;48.752;11.348;2023-05-25T03:36:35;11.60;;;4.00;;
70303;SDS011;57712;48.752;11.348;2023-05-25T03:39:04;12.75;;;4.53;;
70303;SDS011;57712;48.752;11.348;2023-05-25T03:41:31;10.67;;;4.90;;
70303;SDS011;57712;48.752;11.348;2023-05-25T03:43:58;13.05;;;5.53;;
70303;SDS011;57712;48.752;11.348;2023-05-25T03:46:24;11.75;;;4.93;;
70303;SDS011;57712;48.752;11.348;2023-05-25T03:48:51;12.70;;;5.05;;
70303;SDS011;57712;48.752;11.348;2023-05-25T03:51:20;17.27;;;5.78;;
70303;SDS011;57712;48.752;11.348;2023-05-25T03:53:47;13.47;;;5.47;;
70303;SDS011;57712;48.752;11.348;2023-05-25T03:56:13;12.63;;;5.30;;
70303;SDS011;57712;48.752;11.348;2023-05-25T03:58:41;12.68;;;5.40;;
70303;SDS011;57712;48.752;11.348;2023-05-25T04:01:07;13.75;;;5.38;;
70303;SDS011;57712;48.752;11.348;2023-05-25T04:03:35;14.57;;;5.10;;
70303;SDS011;57712;48.752;11.348;2023-05-25T04:06:02;10.70;;;4.33;;
70303;SDS011;57712;48.752;11.348;2023-05-25T04:08:29;15.38;;;5.90;;
70303;SDS011;57712;48.752;11.348;2023-05-25T04:10:56;15.68;;;4.88;;
70303;SDS011;57712;48.752;11.348;2023-05-25T04:13:23;11.68;;;4.72;;
70303;SDS011;57712;48.752;11.348;2023-05-25T04:15:49;15.38;;;5.20;;
70303;SDS011;57712;48.752;11.348;2023-05-25T04:18:16;12.57;;;5.10;;
70303;SDS011;57712;48.752;11.348;2023-05-25T04:20:44;14.88;;;5.07;;
70303;SDS011;57712;48.752;11.348;2023-05-25T04:23:12;14.68;;;4.60;;
70303;SDS011;57712;48.752;11.348;2023-05-25T04:25:39;13.05;;;4.82;;
70303;SDS011;57712;48.752;11.348;2023-05-25T04:28:07;11.65;;;4.40;;
70303;SDS011;57712;48.752;11.348;2023-05-25T04:30:34;11.83;;;4.47;;
70303;SDS011;57712;48.752;11.348;2023-05-25T04:33:01;11.88;;;4.90;;
70303;SDS011;57712;48.752;11.348;2023-05-25T04:35:29;12.73;;;5.63;;
70303;SDS011;57712;48.752;11.348;2023-05-25T04:37:57;11.38;;;4.60;;
70303;SDS011;57712;48.752;11.348;2023-05-25T04:40:25;11.05;;;4.32;;
70303;SDS011;57712;48.752;11.348;2023-05-25T04:42:53;10.73;;;5.27;;
70303;SDS011;57712;48.752;11.348;2023-05-25T04:45:21;12.68;;;4.75;;
70303;SDS011;57712;48.752;11.348;2023-05-25T04:47:49;11.35;;;4.53;;
70303;SDS011;57712;48.752;11.348;2023-05-25T04:50:16;13.98;;;5.00;;
70303;SDS011;57712;48.752;11.348;2023-05-25T04:52:43;11.95;;;4.75;;
70303;SDS011;57712;48.752;11.348;2023-05-25T04:55:10;11.97;;;4.90;;
70303;SDS011;57712;48.752;11.348;2023-05-25T04:57:36;13.15;;;4.93;;
70303;SDS011;57712;48.752;11.348;2023-05-25T05:00:04;9.65;;;4.38;;
70303;SDS011;57712;48.752;11.348;2023-05-25T05:02:31;13.23;;;4.88;;
70303;SDS011;57712;48.752;11.348;2023-05-25T05:04:58;12.43;;;4.85;;
70303;SDS011;57712;48.752;11.348;2023-05-25T05:07:26;9.67;;;4.80;;
70303;SDS011;57712;48.752;11.348;2023-05-25T05:09:54;12.15;;;4.28;;
70303;SDS011;57712;48.752;11.348;2023-05-25T05:12:21;14.50;;;5.57;;
70303;SDS011;57712;48.752;11.348;2023-05-25T05:14:47;14.02;;;5.05;;
70303;SDS011;57712;48.752;11.348;2023-05-25T05:17:14;15.45;;;5.25;;
70303;SDS011;57712;48.752;11.348;2023-05-25T05:19:43;12.70;;;5.07;;
70303;SDS011;57712;48.752;11.348;2023-05-25T05:22:10;13.10;;;5.50;;
70303;SDS011;57712;48.752;11.348;2023-05-25T05:24:38;11.25;;;5.15;;
70303;SDS011;57712;48.752;11.348;2023-05-25T05:27:05;20.80;;;10.38;;
70303;SDS011;57712;48.752;11.348;2023-05-25T05:29:31;16.02;;;7.88;;
70303;SDS011;57712;48.752;11.348;2023-05-25T05:31:59;22.73;;;8.20;;
70303;SDS011;57712;48.752;11.348;2023-05-25T05:34:26;10.80;;;5.15;;
70303;SDS011;57712;48.752;11.348;2023-05-25T05:36:53;10.52;;;4.90;;
70303;SDS011;57712;48.752;11.348;2023-05-25T05:39:24;13.57;;;4.90;;
70303;SDS011;57712;48.752;11.348;2023-05-25T05:41:52;13.70;;;5.00;;
70303;SDS011;57712;48.752;11.348;2023-05-25T05:44:19;10.73;;;5.43;;
70303;SDS011;57712;48.752;11.348;2023-05-25T05:46:46;12.93;;;4.78;;
70303;SDS011;57712;48.752;11.348;2023-05-25T05:49:13;14.00;;;6.45;;
70303;SDS011;57712;48.752;11.348;2023-05-25T05:51:41;11.95;;;4.78;;
70303;SDS011;57712;48.752;11.348;2023-05-25T05:54:07;15.20;;;5.75;;
70303;SDS011;57712;48.752;11.348;2023-05-25T05:56:34;13.53;;;5.10;;
70303;SDS011;57712;48.752;11.348;2023-05-25T05:59:01;16.48;;;5.85;;
70303;SDS011;57712;48.752;11.348;2023-05-25T06:01:28;14.23;;;5.37;;
70303;SDS011;57712;48.752;11.348;2023-05-25T06:03:54;16.27;;;5.32;;
70303;SDS011;57712;48.752;11.348;2023-05-25T06:06:21;13.98;;;5.20;;
70303;SDS011;57712;48.752;11.348;2023-05-25T06:08:48;12.02;;;5.25;;
70303;SDS011;57712;48.752;11.348;2023-05-25T06:11:15;15.05;;;5.30;;
70303;SDS011;57712;48.752;11.348;2023-05-25T06:13:42;13.50;;;5.23;;
70303;SDS011;57712;48.752;11.348;2023-05-25T06:16:11;10.63;;;4.60;;
70303;SDS011;57712;48.752;11.348;2023-05-25T06:18:38;13.77;;;4.95;;
70303;SDS011;57712;48.752;11.348;2023-05-25T06:21:05;9.95;;;4.85;;
70303;SDS011;57712;48.752;11.348;2023-05-25T06:23:31;12.90;;;4.90;;
70303;SDS011;57712;48.752;11.348;2023-05-25T06:26:02;9.33;;;4.20;;
70303;SDS011;57712;48.752;11.348;2023-05-25T06:28:31;11.82;;;4.97;;
70303;SDS011;57712;48.752;11.348;2023-05-25T06:30:58;12.95;;;5.60;;
70303;SDS011;57712;48.752;11.348;2023-05-25T06:33:25;12.60;;;4.40;;
70303;SDS011;57712;48.752;11.348;2023-05-25T06:35:52;12.35;;;5.03;;
70303;SDS011;57712;48.752;11.348;2023-05-25T06:38:23;11.87;;;5.37;;
70303;SDS011;57712;48.752;11.348;2023-05-25T06:40:50;11.55;;;5.47;;
70303;SDS011;57712;48.752;11.348;2023-05-25T06:43:17;12.95;;;4.68;;
70303;SDS011;57712;48.752;11.348;2023-05-25T06:45:43;11.40;;;5.32;;
70303;SDS011;57712;48.752;11.348;2023-05-25T06:48:11;13.48;;;5.75;;
70303;SDS011;57712;48.752;11.348;2023-05-25T06:50:37;12.10;;;4.93;;
70303;SDS011;57712;48.752;11.348;2023-05-25T06:53:05;13.38;;;6.30;;
70303;SDS011;57712;48.752;11.348;2023-05-25T06:55:32;11.57;;;5.70;;
70303;SDS011;57712;48.752;11.348;2023-05-25T06:57:58;12.07;;;4.93;;
70303;SDS011;57712;48.752;11.348;2023-05-25T07:00:25;10.65;;;5.80;;
70303;SDS011;57712;48.752;11.348;2023-05-25T07:02:52;11.23;;;5.10;;
70303;SDS011;57712;48.752;11.348;2023-05-25T07:05:19;11.75;;;4.88;;
70303;SDS011;57712;48.752;11.348;2023-05-25T07:07:46;12.00;;;5.05;;
70303;SDS011;57712;48.752;11.348;2023-05-25T07:10:12;14.90;;;5.43;;
70303;SDS011;57712;48.752;11.348;2023-05-25T07:12:39;11.85;;;5.43;;
70303;SDS011;57712;48.752;11.348;2023-05-25T07:15:06;12.53;;;5.30;;
70303;SDS011;57712;48.752;11.348;2023-05-25T07:17:34;10.30;;;4.80;;
70303;SDS011;57712;48.752;11.348;2023-05-25T07:20:02;9.38;;;4.97;;
70303;SDS011;57712;48.752;11.348;2023-05-25T07:22:30;12.30;;;5.38;;
70303;SDS011;57712;48.752;11.348;2023-05-25T07:24:57;11.10;;;5.47;;
70303;SDS011;57712;48.752;11.348;2023-05-25T07:27:23;10.73;;;4.70;;
70303;SDS011;57712;48.752;11.348;2023-05-25T07:29:50;18.38;;;5.65;;
70303;SDS011;57712;48.752;11.348;2023-05-25T07:32:17;10.15;;;4.35;;
70303;SDS011;57712;48.752;11.348;2023-05-25T07:34:44;11.18;;;5.30;;
70303;SDS011;57712;48.752;11.348;2023-05-25T07:37:10;12.00;;;4.95;;
70303;SDS011;57712;48.752;11.348;2023-05-25T07:39:37;10.30;;;4.70;;
70303;SDS011;57712;48.752;11.348;2023-05-25T07:42:05;12.02;;;5.35;;
70303;SDS011;57712;48.752;11.348;2023-05-25T07:44:32;12.45;;;5.65;;
70303;SDS011;57712;48.752;11.348;2023-05-25T07:46:59;14.70;;;5.90;;
70303;SDS011;57712;48.752;11.348;2023-05-25T07:49:26;13.35;;;5.50;;
70303;SDS011;57712;48.752;11.348;2023-05-25T07:51:53;11.43;;;5.57;;
70303;SDS011;57712;48.752;11.348;2023-05-25T07:54:20;10.75;;;5.47;;
70303;SDS011;57712;48.752;11.348;2023-05-25T07:56:46;12.45;;;5.57;;
70303;SDS011;57712;48.752;11.348;2023-05-25T07:59:13;12.35;;;5.20;;
70303;SDS011;57712;48.752;11.348;2023-05-25T08:01:40;10.55;;;5.60;;
70303;SDS011;57712;48.752;11.348;2023-05-25T08:04:06;13.13;;;5.50;;
70303;SDS011;57712;48.752;11.348;2023-05-25T08:06:33;12.68;;;6.30;;
70303;SDS011;57712;48.752;11.348;2023-05-25T08:09:02;10.88;;;6.28;;
70303;SDS011;57712;48.752;11.348;2023-05-25T08:11:30;14.13;;;5.30;;
70303;SDS011;57712;48.752;11.348;2023-05-25T08:13:56;10.10;;;5.68;;
70303;SDS011;57712;48.752;11.348;2023-05-25T08:16:25;11.90;;;6.20;;
70303;SDS011;57712;48.752;11.348;2023-05-25T08:18:52;12.45;;;5.75;;
70303;SDS011;57712;48.752;11.348;2023-05-25T08:21:19;12.13;;;6.45;;
70303;SDS011;57712;48.752;11.348;2023-05-25T08:23:45;10.82;;;5.97;;
70303;SDS011;57712;48.752;11.348;2023-05-25T08:26:12;14.60;;;6.53;;
70303;SDS011;57712;48.752;11.348;2023-05-25T08:28:59;13.90;;;6.00;;
70303;SDS011;57712;48.752;11.348;2023-05-25T08:31:27;13.65;;;6.13;;
70303;SDS011;57712;48.752;11.348;2023-05-25T08:33:53;13.18;;;6.05;;
70303;SDS011;57712;48.752;11.348;2023-05-25T08:36:20;13.43;;;5.93;;
70303;SDS011;57712;48.752;11.348;2023-05-25T08:38:47;14.02;;;6.10;;
70303;SDS011;57712;48.752;11.348;2023-05-25T08:41:13;12.93;;;5.70;;
70303;SDS011;57712;48.752;11.348;2023-05-25T08:43:40;11.88;;;6.35;;
70303;SDS011;57712;48.752;11.348;2023-05-25T08:46:08;13.48;;;6.07;;
70303;SDS011;57712;48.752;11.348;2023-05-25T08:48:35;11.98;;;6.18;;
70303;SDS011;57712;48.752;11.348;2023-05-25T08:51:08;11.30;;;6.00;;
70303;SDS011;57712;48.752;11.348;2023-05-25T08:53:37;11.37;;;5.90;;
70303;SDS011;57712;48.752;11.348;2023-05-25T08:56:09;12.35;;;6.35;;
70303;SDS011;57712;48.752;11.348;2023-05-25T08:58:44;12.68;;;6.00;;
70303;SDS011;57712;48.752;11.348;2023-05-25T09:01:19;14.57;;;6.28;;
70303;SDS011;57712;48.752;11.348;2023-05-25T09:03:47;11.65;;;6.75;;
70303;SDS011;57712;48.752;11.348;2023-05-25T09:06:16;11.80;;;5.53;;
70303;SDS011;57712;48.752;11.348;2023-05-25T09:08:43;12.60;;;5.88;;
70303;SDS011;57712;48.752;11.348;2023-05-25T09:11:10;13.85;;;5.75;;
70303;SDS011;57712;48.752;11.348;2023-05-25T09:13:42;11.57;;;5.13;;
70303;SDS011;57712;48.752;11.348;2023-05-25T09:16:09;14.23;;;5.82;;
70303;SDS011;57712;48.752;11.348;2023-05-25T09:18:36;9.97;;;5.97;;
70303;SDS011;57712;48.752;11.348;2023-05-25T09:21:03;11.82;;;6.35;;
70303;SDS011;57712;48.752;11.348;2023-05-25T09:23:30;13.25;;;6.43;;
70303;SDS011;57712;48.752;11.348;2023-05-25T09:25:57;12.82;;;6.05;;
70303;SDS011;57712;48.752;11.348;2023-05-25T09:28:24;12.63;;;6.40;;
70303;SDS011;57712;48.752;11.348;2023-05-25T09:30:53;16.10;;;6.80;;
70303;SDS011;57712;48.752;11.348;2023-05-25T09:33:20;13.70;;;6.70;;
70303;SDS011;57712;48.752;11.348;2023-05-25T09:35:47;11.18;;;5.75;;
70303;SDS011;57712;48.752;11.348;2023-05-25T09:38:17;11.90;;;5.40;;
70303;SDS011;57712;48.752;11.348;2023-05-25T09:40:44;11.23;;;5.78;;
70303;SDS011;57712;48.752;11.348;2023-05-25T09:43:12;11.20;;;5.40;;
70303;SDS011;57712;48.752;11.348;2023-05-25T09:45:53;10.88;;;5.30;;
70303;SDS011;57712;48.752;11.348;2023-05-25T09:48:21;12.40;;;6.00;;
70303;SDS011;57712;48.752;11.348;2023-05-25T09:50:48;11.07;;;5.70;;
70303;SDS011;57712;48.752;11.348;2023-05-25T09:53:15;12.73;;;6.40;;
70303;SDS011;57712;48.752;11.348;2023-05-25T09:55:42;11.27;;;5.90;;
70303;SDS011;57712;48.752;11.348;2023-05-25T09:58:21;11.02;;;5.63;;
70303;SDS011;57712;48.752;11.348;2023-05-25T10:00:51;10.98;;;5.45;;
70303;SDS011;57712;48.752;11.348;2023-05-25T10:03:20;9.90;;;5.47;;
70303;SDS011;57712;48.752;11.348;2023-05-25T10:05:47;10.93;;;5.78;;
70303;SDS011;57712;48.752;11.348;2023-05-25T10:08:15;12.83;;;5.63;;
70303;SDS011;57712;48.752;11.348;2023-05-25T10:10:45;9.60;;;5.10;;
70303;SDS011;57712;48.752;11.348;2023-05-25T10:13:17;10.88;;;5.47;;
70303;SDS011;57712;48.752;11.348;2023-05-25T10:15:47;10.73;;;5.18;;
70303;SDS011;57712;48.752;11.348;2023-05-25T10:18:17;9.10;;;4.95;;
70303;SDS011;57712;48.752;11.348;2023-05-25T10:20:52;10.87;;;5.03;;
70303;SDS011;57712;48.752;11.348;2023-05-25T10:23:28;10.43;;;5.05;;
70303;SDS011;57712;48.752;11.348;2023-05-25T10:26:03;10.07;;;5.53;;
70303;SDS011;57712;48.752;11.348;2023-05-25T10:28:35;10.15;;;5.20;;
70303;SDS011;57712;48.752;11.348;2023-05-25T10:31:03;9.05;;;4.78;;
70303;SDS011;57712;48.752;11.348;2023-05-25T10:33:31;10.77;;;5.20;;
70303;SDS011;57712;48.752;11.348;2023-05-25T10:35:59;11.27;;;5.22;;
70303;SDS011;57712;48.752;11.348;2023-05-25T10:38:36;9.65;;;4.85;;
70303;SDS011;57712;48.752;11.348;2023-05-25T10:41:05;10.32;;;5.03;;
70303;SDS011;57712;48.752;11.348;2023-05-25T10:43:35;10.55;;;5.22;;
70303;SDS011;57712;48.752;11.348;2023-05-25T10:46:04;9.57;;;4.83;;
70303;SDS011;57712;48.752;11.348;2023-05-25T10:48:36;9.25;;;4.45;;
70303;SDS011;57712;48.752;11.348;2023-05-25T10:51:04;9.95;;;4.68;;
70303;SDS011;57712;48.752;11.348;2023-05-25T10:53:37;10.57;;;5.13;;
70303;SDS011;57712;48.752;11.348;2023-05-25T10:56:04;8.57;;;5.15;;
70303;SDS011;57712;48.752;11.348;2023-05-25T10:58:33;13.77;;;5.10;;
70303;SDS011;57712;48.752;11.348;2023-05-25T11:01:07;12.10;;;5.53;;
70303;SDS011;57712;48.752;11.348;2023-05-25T11:22:34;8.48;;;4.93;;
70303;SDS011;57712;48.752;11.348;2023-05-25T11:25:34;10.10;;;5.57;;
70303;SDS011;57712;48.752;11.348;2023-05-25T11:28:05;10.85;;;4.55;;
70303;SDS011;57712;48.752;11.348;2023-05-25T11:30:34;8.68;;;4.43;;
70303;SDS011;57712;48.752;11.348;2023-05-25T11:33:02;8.23;;;4.63;;
70303;SDS011;57712;48.752;11.348;2023-05-25T11:35:30;10.65;;;4.90;;
70303;SDS011;57712;48.752;11.348;2023-05-25T11:38:06;10.70;;;4.40;;
70303;SDS011;57712;48.752;11.348;2023-05-25T11:40:33;12.77;;;5.53;;
70303;SDS011;57712;48.752;11.348;2023-05-25T11:43:04;8.55;;;4.57;;
70303;SDS011;57712;48.752;11.348;2023-05-25T11:45:31;9.10;;;5.07;;
70303;SDS011;57712;48.752;11.348;2023-05-25T11:48:03;10.85;;;4.35;;
70303;SDS011;57712;48.752;11.348;2023-05-25T11:50:30;10.33;;;4.77;;
70303;SDS011;57712;48.752;11.348;2023-05-25T11:52:58;9.85;;;4.78;;
70303;SDS011;57712;48.752;11.348;2023-05-25T11:55:25;8.85;;;5.65;;
70303;SDS011;57712;48.752;11.348;2023-05-25T11:57:55;9.77;;;4.85;;
70303;SDS011;57712;48.752;11.348;2023-05-25T12:00:23;8.88;;;4.72;;
70303;SDS011;57712;48.752;11.348;2023-05-25T12:02:51;8.93;;;4.53;;
70303;SDS011;57712;48.752;11.348;2023-05-25T12:05:18;13.65;;;5.18;;
70303;SDS011;57712;48.752;11.348;2023-05-25T12:07:45;9.10;;;4.70;;
70303;SDS011;57712;48.752;11.348;2023-05-25T12:10:13;10.05;;;5.07;;
70303;SDS011;57712;48.752;11.348;2023-05-25T12:12:48;10.02;;;4.55;;
70303;SDS011;57712;48.752;11.348;2023-05-25T12:15:20;8.97;;;3.90;;
70303;SDS011;57712;48.752;11.348;2023-05-25T12:17:48;8.40;;;4.35;;
70303;SDS011;57712;48.752;11.348;2023-05-25T12:20:16;9.15;;;4.90;;
70303;SDS011;57712;48.752;11.348;2023-05-25T12:22:45;10.88;;;5.05;;
70303;SDS011;57712;48.752;11.348;2023-05-25T12:25:12;9.98;;;4.82;;
70303;SDS011;57712;48.752;11.348;2023-05-25T12:27:43;9.23;;;4.97;;
70303;SDS011;57712;48.752;11.348;2023-05-25T12:30:10;9.18;;;5.30;;
70303;SDS011;57712;48.752;11.348;2023-05-25T12:32:53;9.15;;;4.32;;
70303;SDS011;57712;48.752;11.348;2023-05-25T12:35:27;10.48;;;4.53;;
70303;SDS011;57712;48.752;11.348;2023-05-25T12:38:10;9.88;;;4.88;;
70303;SDS011;57712;48.752;11.348;2023-05-25T12:40:42;9.33;;;4.27;;
70303;SDS011;57712;48.752;11.348;2023-05-25T12:43:10;12.55;;;4.68;;
70303;SDS011;57712;48.752;11.348;2023-05-25T12:45:40;10.70;;;4.55;;
70303;SDS011;57712;48.752;11.348;2023-05-25T12:48:09;9.07;;;4.35;;
70303;SDS011;57712;48.752;11.348;2023-05-25T12:50:37;6.90;;;4.05;;
70303;SDS011;57712;48.752;11.348;2023-05-25T12:53:04;8.73;;;4.37;;
70303;SDS011;57712;48.752;11.348;2023-05-25T12:55:31;9.38;;;4.78;;
70303;SDS011;57712;48.752;11.348;2023-05-25T12:58:02;9.93;;;4.43;;
70303;SDS011;57712;48.752;11.348;2023-05-25T13:00:37;9.32;;;4.95;;
70303;SDS011;57712;48.752;11.348;2023-05-25T13:03:05;10.07;;;4.55;;
70303;SDS011;57712;48.752;11.348;2023-05-25T13:05:33;9.73;;;4.80;;
70303;SDS011;57712;48.752;11.348;2023-05-25T13:08:04;8.35;;;3.60;;
70303;SDS011;57712;48.752;11.348;2023-05-25T13:10:32;10.60;;;4.47;;
70303;SDS011;57712;48.752;11.348;2023-05-25T13:13:00;10.55;;;4.60;;
70303;SDS011;57712;48.752;11.348;2023-05-25T13:15:27;9.52;;;4.78;;
70303;SDS011;57712;48.752;11.348;2023-05-25T13:17:54;8.80;;;3.87;;
70303;SDS011;57712;48.752;11.348;2023-05-25T13:20:24;7.43;;;3.92;;
70303;SDS011;57712;48.752;11.348;2023-05-25T13:22:52;9.32;;;4.45;;
70303;SDS011;57712;48.752;11.348;2023-05-25T13:25:21;9.48;;;3.72;;
70303;SDS011;57712;48.752;11.348;2023-05-25T13:27:49;9.63;;;4.60;;
70303;SDS011;57712;48.752;11.348;2023-05-25T13:30:17;6.17;;;3.80;;
70303;SDS011;57712;48.752;11.348;2023-05-25T13:32:46;8.48;;;4.00;;
70303;SDS011;57712;48.752;11.348;2023-05-25T13:35:16;8.63;;;4.47;;
70303;SDS011;57712;48.752;11.348;2023-05-25T13:38:03;7.80;;;3.90;;
70303;SDS011;57712;48.752;11.348;2023-05-25T13:40:31;9.32;;;4.97;;
70303;SDS011;57712;48.752;11.348;2023-05-25T13:42:58;7.63;;;3.73;;
70303;SDS011;57712;48.752;11.348;2023-05-25T13:45:25;9.80;;;4.05;;
70303;SDS011;57712;48.752;11.348;2023-05-25T13:47:51;9.93;;;4.13;;
70303;SDS011;57712;48.752;11.348;2023-05-25T13:50:18;9.20;;;4.30;;
70303;SDS011;57712;48.752;11.348;2023-05-25T13:52:45;8.30;;;3.95;;
70303;SDS011;57712;48.752;11.348;2023-05-25T13:55:12;7.30;;;4.10;;
70303;SDS011;57712;48.752;11.348;2023-05-25T13:57:38;10.48;;;4.75;;
70303;SDS011;57712;48.752;11.348;2023-05-25T14:00:05;7.75;;;3.75;;
70303;SDS011;57712;48.752;11.348;2023-05-25T14:02:33;10.07;;;4.63;;
70303;SDS011;57712;48.752;11.348;2023-05-25T14:05:01;9.68;;;4.40;;
70303;SDS011;57712;48.752;11.348;2023-05-25T14:07:27;8.83;;;4.27;;
70303;SDS011;57712;48.752;11.348;2023-05-25T14:09:54;9.52;;;3.95;;
70303;SDS011;57712;48.752;11.348;2023-05-25T14:12:23;9.05;;;5.20;;
70303;SDS011;57712;48.752;11.348;2023-05-25T14:14:50;10.30;;;4.38;;
70303;SDS011;57712;48.752;11.348;2023-05-25T14:17:16;8.10;;;4.18;;
70303;SDS011;57712;48.752;11.348;2023-05-25T14:19:43;9.90;;;4.27;;
70303;SDS011;57712;48.752;11.348;2023-05-25T14:22:10;7.88;;;4.50;;
70303;SDS011;57712;48.752;11.348;2023-05-25T14:24:39;11.70;;;4.28;;
70303;SDS011;57712;48.752;11.348;2023-05-25T14:27:06;10.75;;;4.50;;
70303;SDS011;57712;48.752;11.348;2023-05-25T14:29:33;8.38;;;4.28;;
70303;SDS011;57712;48.752;11.348;2023-05-25T14:32:00;12.40;;;4.47;;
70303;SDS011;57712;48.752;11.348;2023-05-25T14:34:28;8.45;;;3.97;;
70303;SDS011;57712;48.752;11.348;2023-05-25T14:36:55;9.05;;;4.22;;
70303;SDS011;57712;48.752;11.348;2023-05-25T14:39:21;11.63;;;3.78;;
70303;SDS011;57712;48.752;11.348;2023-05-25T14:41:48;9.75;;;4.03;;
70303;SDS011;57712;48.752;11.348;2023-05-25T14:44:15;8.40;;;4.13;;
70303;SDS011;57712;48.752;11.348;2023-05-25T14:46:42;9.63;;;4.20;;
70303;SDS011;57712;48.752;11.348;2023-05-25T14:49:09;9.60;;;4.22;;
70303;SDS011;57712;48.752;11.348;2023-05-25T14:51:36;8.27;;;4.10;;
70303;SDS011;57712;48.752;11.348;2023-05-25T14:54:03;9.82;;;4.47;;
70303;SDS011;57712;48.752;11.348;2023-05-25T14:56:31;11.63;;;5.40;;